Time;durP1;ratioP1;P1;durP2;ratioP2;P2;SDS_P1;SDS_P2;PMS_P1;PMS_P2;Temp;Humidity;BMP_temperature;BMP_pressure;BME280_temperature;BME280_humidity;BME280_pressure;Samples;Min_cycle;Max_cycle;Signal;HPM_P1;HPM_P2
2022/02/13 00:00:37;;;;;;;95.22;37.85;;;;;;;-4.63;77.56;102123.05;1429395;89;21486;-80
2022/02/13 00:03:04;;;;;;;86.57;37.42;;;;;;;-4.68;77.33;102123.50;1442958;89;21574;-80
2022/02/13 00:05:31;;;;;;;74.75;36.03;;;;;;;-4.74;79.39;102118.37;1437364;89;21523;-80
2022/02/13 00:08:00;;;;;;;85.05;40.12;;;;;;;-4.77;78.14;102123.56;1442818;89;22373;-81
2022/02/13 00:10:27;;;;;;;83.87;38.55;;;;;;;-4.76;78.66;102113.64;1429736;90;21552;-81
2022/02/13 00:12:55;;;;;;;86.42;39.50;;;;;;;-4.71;77.83;102127.84;1439699;89;21419;-80
2022/02/13 00:15:22;;;;;;;88.05;40.20;;;;;;;-4.73;78.28;102122.67;1440144;89;21346;-80
2022/02/13 00:17:49;;;;;;;87.55;38.95;;;;;;;-4.80;77.97;102115.83;1442359;89;22432;-80
2022/02/13 00:20:16;;;;;;;84.85;37.53;;;;;;;-4.78;77.31;102111.50;1441013;91;21383;-80
2022/02/13 00:22:43;;;;;;;85.05;40.67;;;;;;;-4.78;77.54;102114.08;1429404;91;21368;-80
2022/02/13 00:25:10;;;;;;;102.82;44.08;;;;;;;-4.81;77.42;102112.80;1428238;89;21353;-79
2022/02/13 00:27:38;;;;;;;93.87;37.13;;;;;;;-4.80;77.59;102108.09;1446982;90;22321;-79
2022/02/13 00:30:08;;;;;;;79.60;36.93;;;;;;;-4.84;78.48;102107.66;1449236;89;21449;-80
2022/02/13 00:32:35;;;;;;;85.12;39.53;;;;;;;-4.87;77.76;102094.77;1454567;89;21331;-80
2022/02/13 00:35:02;;;;;;;86.95;39.27;;;;;;;-4.88;78.21;102100.81;1454294;89;22410;-80
2022/02/13 00:37:29;;;;;;;83.17;40.20;;;;;;;-4.96;78.68;102090.95;1448503;89;21330;-81
2022/02/13 00:39:56;;;;;;;97.85;45.52;;;;;;;-5.00;78.77;102088.38;1447349;89;21391;-80
2022/02/13 00:42:23;;;;;;;101.40;42.33;;;;;;;-5.02;79.09;102087.52;1451207;90;21567;-80
2022/02/13 00:44:50;;;;;;;75.32;35.75;;;;;;;-5.01;79.21;102084.06;1452377;90;21583;-80
2022/02/13 00:47:17;;;;;;;91.60;38.78;;;;;;;-5.01;78.95;102084.06;1447036;90;21465;-80
2022/02/13 00:49:45;;;;;;;77.82;33.75;;;;;;;-4.95;78.33;102093.94;1434396;90;21368;-80
2022/02/13 00:52:12;;;;;;;77.75;35.63;;;;;;;-4.92;78.18;102094.81;1444110;90;23258;-80
2022/02/13 00:54:39;;;;;;;68.87;36.05;;;;;;;-4.88;77.53;102090.03;1440058;90;21324;-80
2022/02/13 00:57:06;;;;;;;74.05;33.73;;;;;;;-4.80;77.48;102099.90;1441300;90;21368;-80
2022/02/13 00:59:33;;;;;;;70.05;32.40;;;;;;;-4.73;77.42;102090.81;1452283;90;21419;-80
2022/02/13 01:02:00;;;;;;;73.10;33.53;;;;;;;-4.77;77.68;102075.77;1442103;90;21413;-81
2022/02/13 01:04:27;;;;;;;66.50;31.35;;;;;;;-4.77;77.56;102088.69;1441864;90;21405;-80
2022/02/13 01:06:54;;;;;;;71.40;32.25;;;;;;;-4.78;77.14;102081.79;1445690;90;22509;-81
2022/02/13 01:09:22;;;;;;;69.03;30.65;;;;;;;-4.79;76.83;102064.59;1448899;90;23437;-80
2022/02/13 01:11:49;;;;;;;69.50;30.48;;;;;;;-4.77;76.82;102080.94;1437956;90;21560;-80
2022/02/13 01:14:16;;;;;;;59.08;27.32;;;;;;;-4.78;76.64;102063.70;1453861;90;21613;-80
2022/02/13 01:16:43;;;;;;;58.00;28.35;;;;;;;-4.79;76.59;102063.30;1445070;90;21980;-80
2022/02/13 01:19:10;;;;;;;63.70;29.10;;;;;;;-4.79;76.17;102077.06;1450400;90;21511;-80
2022/02/13 01:21:37;;;;;;;59.45;29.40;;;;;;;-4.79;75.86;102068.46;1430106;90;22532;-80
2022/02/13 01:24:06;;;;;;;57.03;27.02;;;;;;;-4.79;76.37;102058.13;1452798;90;22675;-81
2022/02/13 01:26:33;;;;;;;72.22;30.12;;;;;;;-4.80;76.67;102059.00;1424323;90;21554;-80
2022/02/13 01:29:00;;;;;;;52.60;27.60;;;;;;;-4.86;76.91;102049.98;1439633;90;21339;-81
2022/02/13 01:31:28;;;;;;;66.28;29.23;;;;;;;-4.89;76.87;102060.33;1453174;89;22269;-80
2022/02/13 01:33:56;;;;;;;65.52;31.42;;;;;;;-4.93;76.54;102057.35;1463221;89;21310;-80
2022/02/13 01:36:24;;;;;;;57.23;27.82;;;;;;;-4.89;76.71;102046.13;1452142;89;21449;-80
2022/02/13 01:38:51;;;;;;;60.12;28.70;;;;;;;-4.87;76.53;102048.27;1456817;89;22409;-80
2022/02/13 01:41:18;;;;;;;53.45;25.55;;;;;;;-4.90;76.85;102047.00;1454819;89;21464;-80
2022/02/13 01:43:45;;;;;;;55.58;26.40;;;;;;;-4.95;76.47;102038.42;1428070;90;21449;-81
2022/02/13 01:46:12;;;;;;;50.40;25.35;;;;;;;-4.98;77.72;102036.70;1434256;90;21361;-80
2022/02/13 01:48:40;;;;;;;54.20;27.35;;;;;;;-5.08;77.34;102035.92;1445159;90;21339;-80
2022/02/13 01:51:07;;;;;;;62.83;26.30;;;;;;;-5.05;76.56;102041.06;1441963;90;21546;-80
2022/02/13 01:53:34;;;;;;;55.38;26.80;;;;;;;-5.01;76.36;102032.42;1404895;92;21569;-80
2022/02/13 01:56:02;;;;;;;50.50;25.37;;;;;;;-5.00;77.10;102035.88;1436048;91;22485;-79
2022/02/13 01:58:29;;;;;;;55.50;27.20;;;;;;;-5.08;78.00;102023.45;1416003;92;22516;-80
2022/02/13 02:00:56;;;;;;;57.03;24.55;;;;;;;-5.12;77.98;102020.03;1435270;91;21509;-79
2022/02/13 02:03:24;;;;;;;54.42;25.02;;;;;;;-5.15;79.01;102023.92;1412085;92;21539;-80
2022/02/13 02:05:53;;;;;;;57.33;26.33;;;;;;;-5.20;78.77;102026.96;1449742;90;21545;-80
2022/02/13 02:08:20;;;;;;;55.55;26.17;;;;;;;-5.25;78.00;102024.39;1444482;90;21494;-80
2022/02/13 02:10:49;;;;;;;52.15;27.37;;;;;;;-5.28;78.49;102017.10;1438748;90;21375;-80
2022/02/13 02:13:17;;;;;;;67.30;28.60;;;;;;;-5.32;78.52;102011.52;1437897;90;21398;-80
2022/02/13 02:15:44;;;;;;;54.98;28.15;;;;;;;-5.35;78.11;102017.98;1451498;90;21375;-80
2022/02/13 02:18:14;;;;;;;69.32;31.97;;;;;;;-5.38;77.04;102025.74;1440845;90;21442;-80
2022/02/13 02:20:41;;;;;;;64.58;30.37;;;;;;;-5.39;76.65;102013.72;1426685;90;21434;-80
2022/02/13 02:23:08;;;;;;;66.77;31.97;;;;;;;-5.39;76.53;102027.47;1460898;89;21389;-80
2022/02/13 02:25:35;;;;;;;63.58;31.12;;;;;;;-5.41;76.75;102037.37;1457293;89;21449;-81
2022/02/13 02:28:03;;;;;;;68.52;31.20;;;;;;;-5.46;77.07;102034.39;1463200;87;21974;-80
2022/02/13 02:30:30;;;;;;;71.53;30.77;;;;;;;-5.48;77.73;102038.69;1462625;89;21375;-82
2022/02/13 02:32:58;;;;;;;61.28;29.45;;;;;;;-5.51;77.84;102038.70;1469405;89;22380;-81
2022/02/13 02:35:25;;;;;;;62.33;29.75;;;;;;;-5.51;77.30;102035.27;1439671;89;21506;-81
2022/02/13 02:37:52;;;;;;;62.53;29.12;;;;;;;-5.53;77.88;102032.69;1463628;89;21565;-80
2022/02/13 02:40:19;;;;;;;65.78;28.85;;;;;;;-5.55;77.54;102031.85;1467402;89;21611;-81
2022/02/13 02:42:48;;;;;;;59.90;29.77;;;;;;;-5.55;77.33;102035.72;1447694;89;21544;-80
2022/02/13 02:45:15;;;;;;;54.20;26.65;;;;;;;-5.58;78.19;102028.00;1448045;89;21397;-81
2022/02/13 02:47:42;;;;;;;56.50;26.12;;;;;;;-5.59;78.14;102035.29;1451139;89;21382;-81
2022/02/13 02:50:12;;;;;;;58.00;27.35;;;;;;;-5.58;77.89;102038.72;1455722;89;21419;-80
2022/02/13 02:52:41;;;;;;;54.67;27.37;;;;;;;-5.62;78.28;102030.14;1451184;90;21581;-81
2022/02/13 02:55:09;;;;;;;64.62;30.10;;;;;;;-5.59;77.81;102030.13;1446906;89;21545;-81
2022/02/13 02:57:36;;;;;;;62.05;28.80;;;;;;;-5.57;77.35;102028.85;1440572;88;22373;-80
2022/02/13 03:00:08;;;;;;;67.60;29.35;;;;;;;-5.56;76.87;102030.12;1437672;87;21381;-80
2022/02/13 03:02:35;;;;;;;57.15;29.42;;;;;;;-5.57;76.96;102022.40;1461360;87;21440;-80
2022/02/13 03:05:03;;;;;;;55.58;24.82;;;;;;;-5.60;76.75;102027.14;1456007;89;22285;-81
2022/02/13 03:07:30;;;;;;;53.05;25.20;;;;;;;-5.63;76.13;102025.86;1462966;87;22240;-82
2022/02/13 03:09:57;;;;;;;59.48;27.10;;;;;;;-5.61;76.12;102025.43;1470714;87;22290;-81
2022/02/13 03:12:24;;;;;;;50.70;24.10;;;;;;;-5.52;76.36;102021.95;1464724;87;21367;-80
2022/02/13 03:14:52;;;;;;;55.63;24.82;;;;;;;-5.49;76.92;102024.09;1466027;87;21375;-80
2022/02/13 03:17:19;;;;;;;47.95;23.85;;;;;;;-5.52;77.46;102025.39;1480974;87;23448;-82
2022/02/13 03:19:46;;;;;;;55.05;26.25;;;;;;;-5.60;77.41;102023.27;1452097;89;22564;-81
2022/02/13 03:22:13;;;;;;;60.30;28.25;;;;;;;-5.65;77.55;102012.09;1469776;87;21404;-80
2022/02/13 03:24:40;;;;;;;43.10;21.50;;;;;;;-5.66;77.49;102010.40;1480296;87;22592;-81
2022/02/13 03:27:07;;;;;;;51.63;22.60;;;;;;;-5.68;77.48;102013.41;1458233;89;22601;-81
2022/02/13 03:29:35;;;;;;;42.95;22.25;;;;;;;-5.67;77.04;102009.55;1450543;89;21587;-81
2022/02/13 03:32:02;;;;;;;48.58;24.87;;;;;;;-5.68;77.47;102008.25;1470632;88;21316;-83
2022/02/13 03:34:29;;;;;;;49.13;21.70;;;;;;;-5.68;77.57;102014.70;1470709;88;21389;-81
2022/02/13 03:36:58;;;;;;;52.85;22.95;;;;;;;-5.75;78.01;102009.15;1473553;88;21397;-81
2022/02/13 03:39:28;;;;;;;51.13;22.22;;;;;;;-5.80;77.82;102003.14;1470043;88;21390;-81
2022/02/13 03:41:55;;;;;;;44.45;21.52;;;;;;;-5.82;78.61;102009.58;1480986;88;21381;-82
2022/02/13 03:44:22;;;;;;;44.73;22.80;;;;;;;-5.85;78.39;102008.73;1483037;87;21978;-81
2022/02/13 03:46:50;;;;;;;51.65;21.52;;;;;;;-5.92;78.16;102015.20;1479334;87;21411;-84
2022/02/13 03:49:18;;;;;;;46.23;23.30;;;;;;;-5.98;77.94;102010.09;1492538;87;21411;-83
2022/02/13 03:51:45;;;;;;;44.18;22.93;;;;;;;-6.02;79.20;102007.08;1481993;87;23316;-83
2022/02/13 03:54:14;;;;;;;46.95;24.18;;;;;;;-6.04;79.46;102008.83;1482885;87;22430;-83
2022/02/13 03:56:41;;;;;;;39.53;22.05;;;;;;;-6.02;79.13;102004.50;1472540;87;21462;-83
2022/02/13 03:59:10;;;;;;;41.02;22.45;;;;;;;-5.98;79.21;102004.09;1487753;87;22417;-83
2022/02/13 04:01:37;;;;;;;46.90;21.87;;;;;;;-5.96;79.43;102004.48;1485759;87;21621;-83
2022/02/13 04:04:05;;;;;;;46.95;23.20;;;;;;;-6.02;80.02;101999.78;1488725;87;21507;-83
2022/02/13 04:06:32;;;;;;;39.55;21.45;;;;;;;-6.08;80.42;102003.23;1483340;87;22460;-83
2022/02/13 04:09:00;;;;;;;43.50;21.27;;;;;;;-6.09;80.70;102002.82;1482150;87;21667;-82
2022/02/13 04:11:27;;;;;;;42.38;22.73;;;;;;;-6.08;80.17;101995.94;1458573;87;21447;-83
2022/02/13 04:13:54;;;;;;;49.05;21.42;;;;;;;-6.06;80.53;101995.52;1460763;87;21440;-83
2022/02/13 04:16:21;;;;;;;44.40;24.10;;;;;;;-6.06;80.36;101991.20;1487108;87;21315;-83
2022/02/13 04:18:49;;;;;;;43.95;21.55;;;;;;;-6.04;79.81;101992.48;1485631;87;22591;-83
2022/02/13 04:21:17;;;;;;;44.13;22.27;;;;;;;-6.04;80.19;101991.19;1487673;87;22423;-83
2022/02/13 04:23:44;;;;;;;55.55;24.40;;;;;;;-6.06;79.95;101993.79;1488943;87;21425;-83
2022/02/13 04:26:11;;;;;;;44.20;21.17;;;;;;;-6.08;79.71;101986.48;1474590;87;21388;-83
2022/02/13 04:28:38;;;;;;;48.90;24.15;;;;;;;-6.08;80.16;101990.34;1484167;87;21469;-84
2022/02/13 04:31:05;;;;;;;47.70;22.62;;;;;;;-6.11;80.10;101989.50;1480597;87;21426;-83
2022/02/13 04:33:32;;;;;;;46.08;23.22;;;;;;;-6.14;80.51;101983.92;1485596;87;21389;-84
2022/02/13 04:36:00;;;;;;;40.75;20.75;;;;;;;-6.15;81.02;101987.38;1495390;87;21472;-83
2022/02/13 04:38:27;;;;;;;45.15;22.48;;;;;;;-6.19;81.47;101981.34;1491952;87;21425;-81
2022/02/13 04:40:54;;;;;;;166.95;72.67;;;;;;;-6.18;81.05;101980.94;1492953;87;21597;-79
2022/02/13 04:43:21;;;;;;;86.50;38.38;;;;;;;-6.17;80.00;101972.33;1487418;87;22408;-79
2022/02/13 04:45:48;;;;;;;49.70;23.83;;;;;;;-6.19;79.91;101977.47;1489878;87;21397;-79
2022/02/13 04:48:15;;;;;;;37.53;20.43;;;;;;;-6.25;80.71;101976.64;1479882;87;21425;-79
2022/02/13 04:50:42;;;;;;;40.15;21.77;;;;;;;-6.27;80.30;101977.06;1482838;87;21448;-79
2022/02/13 04:53:09;;;;;;;45.00;21.82;;;;;;;-6.32;81.26;101974.95;1486777;87;22342;-79
2022/02/13 04:55:37;;;;;;;65.42;29.02;;;;;;;-6.33;81.06;101969.34;1482666;87;22563;-80
2022/02/13 04:58:05;;;;;;;41.48;22.02;;;;;;;-6.33;81.04;101968.06;1491353;87;21544;-81
2022/02/13 05:00:32;;;;;;;38.45;21.12;;;;;;;-6.33;80.74;101973.21;1483623;87;21515;-81
2022/02/13 05:02:59;;;;;;;42.40;20.50;;;;;;;-6.37;81.60;101969.36;1485189;87;21344;-81
2022/02/13 05:05:26;;;;;;;44.75;22.37;;;;;;;-6.35;80.92;101964.22;1488731;87;21410;-80
2022/02/13 05:07:54;;;;;;;41.70;21.05;;;;;;;-6.36;80.79;101962.08;1482038;87;21315;-81
2022/02/13 05:10:21;;;;;;;51.28;23.92;;;;;;;-6.39;80.87;101959.50;1476128;87;21425;-82
2022/02/13 05:12:48;;;;;;;46.48;22.55;;;;;;;-6.40;80.88;101968.08;1475897;87;21432;-80
2022/02/13 05:15:16;;;;;;;47.40;23.92;;;;;;;-6.40;80.07;101961.63;1457684;87;21380;-81
2022/02/13 05:17:44;;;;;;;41.25;22.20;;;;;;;-6.41;79.72;101968.09;1482381;87;21360;-81
2022/02/13 05:20:12;;;;;;;45.92;23.32;;;;;;;-6.43;79.91;101958.21;1481384;87;21432;-81
2022/02/13 05:22:40;;;;;;;52.90;23.52;;;;;;;-6.43;80.03;101959.06;1484478;87;21469;-81
2022/02/13 05:25:08;;;;;;;61.60;31.87;;;;;;;-6.41;79.56;101961.22;1477669;87;21426;-81
2022/02/13 05:27:35;;;;;;;50.20;26.35;;;;;;;-6.39;79.31;101970.22;1486191;87;21593;-80
2022/02/13 05:30:03;;;;;;;42.58;22.48;;;;;;;-6.40;79.02;101974.52;1495212;87;21513;-80
2022/02/13 05:32:30;;;;;;;45.63;23.42;;;;;;;-6.42;79.24;101970.22;1488560;87;21425;-80
2022/02/13 05:34:58;;;;;;;45.17;23.18;;;;;;;-6.40;78.96;101969.80;1457497;87;22585;-81
2022/02/13 05:37:25;;;;;;;44.40;22.73;;;;;;;-6.43;79.00;101966.80;1490344;87;21404;-80
2022/02/13 05:39:52;;;;;;;43.58;24.87;;;;;;;-6.42;79.03;101965.06;1484155;87;21448;-81
2022/02/13 05:42:19;;;;;;;41.02;22.82;;;;;;;-6.43;79.55;101963.36;1489605;87;21396;-81
2022/02/13 05:44:46;;;;;;;43.98;23.20;;;;;;;-6.42;78.97;101971.08;1480859;87;21990;-81
2022/02/13 05:47:13;;;;;;;78.40;40.15;;;;;;;-6.42;79.28;101967.20;1482524;87;21462;-80
2022/02/13 05:49:40;;;;;;;83.12;39.92;;;;;;;-6.46;80.15;101969.37;1485211;87;23150;-81
2022/02/13 05:52:07;;;;;;;67.15;31.77;;;;;;;-6.48;80.59;101967.22;1488062;87;21485;-81
2022/02/13 05:54:35;;;;;;;57.53;28.35;;;;;;;-6.46;80.52;101971.95;1484564;87;21477;-81
2022/02/13 05:57:02;;;;;;;48.08;26.70;;;;;;;-6.41;80.81;101977.97;1477312;87;21507;-80
2022/02/13 05:59:30;;;;;;;58.30;28.65;;;;;;;-6.34;80.63;101983.11;1484728;87;21506;-81
2022/02/13 06:01:57;;;;;;;49.60;25.35;;;;;;;-6.26;80.58;101987.82;1479038;87;21396;-81
2022/02/13 06:04:25;;;;;;;51.40;24.82;;;;;;;-6.18;79.90;101984.80;1485015;87;21381;-81
2022/02/13 06:06:55;;;;;;;40.73;23.87;;;;;;;-6.12;79.90;101980.92;1489234;87;21484;-81
2022/02/13 06:09:23;;;;;;;53.68;27.82;;;;;;;-6.10;79.55;101979.61;1474152;87;21411;-81
2022/02/13 06:11:51;;;;;;;45.60;22.75;;;;;;;-6.09;78.86;101971.89;1459378;89;21419;-81
2022/02/13 06:14:19;;;;;;;38.02;21.42;;;;;;;-6.08;78.43;101972.73;1460671;89;21516;-80
2022/02/13 06:16:46;;;;;;;37.20;19.67;;;;;;;-6.04;78.32;101971.45;1463660;89;21374;-81
2022/02/13 06:19:14;;;;;;;40.50;22.25;;;;;;;-6.01;78.12;101973.13;1461817;89;21464;-82
2022/02/13 06:21:41;;;;;;;49.15;25.80;;;;;;;-5.94;78.28;101981.29;1438616;90;21464;-82
2022/02/13 06:24:08;;;;;;;47.10;25.15;;;;;;;-5.87;78.46;101979.51;1441138;90;22307;-81
2022/02/13 06:26:35;;;;;;;44.25;21.42;;;;;;;-5.80;78.58;101974.33;1435618;90;21441;-82
2022/02/13 06:29:06;;;;;;;41.95;22.73;;;;;;;-5.72;78.52;101976.89;1441610;90;21465;-82
2022/02/13 06:31:34;;;;;;;47.30;23.40;;;;;;;-5.61;78.39;101970.38;1443903;89;22264;-82
2022/02/13 06:34:01;;;;;;;41.45;22.93;;;;;;;-5.50;78.87;101968.60;1441846;89;23436;-82
2022/02/13 06:36:28;;;;;;;58.48;27.25;;;;;;;-5.38;78.66;101971.55;1435835;89;22432;-81
2022/02/13 06:38:55;;;;;;;50.10;24.25;;;;;;;-5.35;78.25;101961.20;1445671;89;21280;-82
2022/02/13 06:41:22;;;;;;;60.35;29.23;;;;;;;-5.31;78.03;101971.52;1442925;89;21317;-81
2022/02/13 06:43:49;;;;;;;62.65;30.97;;;;;;;-5.24;78.09;101967.16;1436616;89;21443;-82
2022/02/13 06:46:17;;;;;;;55.65;28.95;;;;;;;-5.16;78.05;101969.70;1428256;90;21458;-81
2022/02/13 06:48:44;;;;;;;55.38;28.50;;;;;;;-5.06;78.11;101961.90;1442056;89;22254;-81
2022/02/13 06:51:11;;;;;;;60.58;31.62;;;;;;;-4.96;77.95;101961.39;1451645;89;22440;-81
2022/02/13 06:53:38;;;;;;;68.07;33.65;;;;;;;-4.87;77.89;101959.16;1443623;89;21414;-81
2022/02/13 06:56:07;;;;;;;77.20;36.70;;;;;;;-4.77;77.81;101964.26;1440896;89;21361;-80
2022/02/13 06:58:34;;;;;;;57.15;30.68;;;;;;;-4.60;77.83;101960.68;1445562;89;21414;-81
2022/02/13 07:01:01;;;;;;;59.40;30.97;;;;;;;-4.47;77.66;101967.44;1445745;89;22529;-80
2022/02/13 07:03:29;;;;;;;57.00;29.15;;;;;;;-4.38;77.60;101964.75;1446078;89;21310;-81
2022/02/13 07:05:56;;;;;;;55.40;29.00;;;;;;;-4.30;77.31;101964.69;1445173;89;21354;-81
2022/02/13 07:08:23;;;;;;;62.00;31.68;;;;;;;-4.21;77.17;101954.25;1445644;89;21518;-81
2022/02/13 07:10:50;;;;;;;59.55;31.20;;;;;;;-4.13;76.92;101949.86;1443807;89;22256;-81
2022/02/13 07:13:17;;;;;;;61.10;33.40;;;;;;;-4.09;76.46;101951.52;1442282;89;21369;-81
2022/02/13 07:15:47;;;;;;;58.45;31.87;;;;;;;-4.03;76.87;101953.62;1444821;89;21310;-81
2022/02/13 07:18:14;;;;;;;66.12;35.33;;;;;;;-3.87;77.16;101946.12;1440951;90;21610;-81
2022/02/13 07:20:41;;;;;;;60.70;33.28;;;;;;;-3.70;77.24;101941.59;1443456;90;21524;-81
2022/02/13 07:23:09;;;;;;;73.92;34.92;;;;;;;-3.59;77.39;101945.78;1435197;90;21634;-81
2022/02/13 07:25:36;;;;;;;74.20;36.80;;;;;;;-3.54;77.62;101943.55;1441506;90;22417;-82
2022/02/13 07:28:58;;;;;;;79.22;37.03;;;;;;;-3.39;77.54;101948.95;1444008;89;21434;-82
2022/02/13 07:30:33;;;;;;;73.33;35.33;;;;;;;-3.30;77.82;101946.22;1450901;89;21635;-81
2022/02/13 07:33:01;;;;;;;62.33;31.42;;;;;;;-3.20;78.11;101945.20;1448419;90;21411;-81
2022/02/13 07:35:28;;;;;;;56.15;28.12;;;;;;;-2.99;77.91;101939.30;1447309;90;22497;-81
2022/02/13 07:37:55;;;;;;;61.37;30.25;;;;;;;-2.77;77.76;101943.23;1453740;90;21596;-81
2022/02/13 07:40:22;;;;;;;57.73;29.05;;;;;;;-2.59;77.13;101938.61;1447992;90;21556;-81
2022/02/13 07:42:49;;;;;;;58.50;28.05;;;;;;;-2.40;76.98;101945.19;1453836;90;21501;-81
2022/02/13 07:45:16;;;;;;;51.08;27.32;;;;;;;-2.25;76.45;101931.53;1452235;90;21530;-80
2022/02/13 07:47:43;;;;;;;42.48;23.77;;;;;;;-2.04;76.23;101933.72;1447311;90;21508;-80
2022/02/13 07:50:13;;;;;;;42.65;21.33;;;;;;;-1.83;76.52;101928.08;1460033;88;21621;-82
2022/02/13 07:52:42;;;;;;;31.23;18.90;;;;;;;-1.53;76.67;101932.66;1465086;88;21382;-79
2022/02/13 07:55:12;;;;;;;40.30;19.32;;;;;;;-1.31;75.93;101927.84;1464206;89;21331;-79
2022/02/13 07:57:41;;;;;;;35.58;20.20;;;;;;;-1.19;74.84;101923.66;1463565;88;22351;-80
2022/02/13 08:00:10;;;;;;;44.08;21.42;;;;;;;-1.04;74.85;101927.64;1469929;89;21316;-80
2022/02/13 08:02:38;;;;;;;31.25;18.73;;;;;;;-0.83;74.89;101910.69;1466896;88;22350;-80
2022/02/13 08:05:06;;;;;;;31.37;18.42;;;;;;;-0.67;73.96;101923.68;1464166;88;21419;-80
2022/02/13 08:07:33;;;;;;;35.08;19.23;;;;;;;-0.51;73.62;101923.70;1469251;88;21323;-79
2022/02/13 08:10:00;;;;;;;32.88;18.45;;;;;;;-0.38;72.94;101919.47;1461798;88;21427;-79
2022/02/13 08:12:27;;;;;;;35.63;20.68;;;;;;;-0.23;72.69;101919.08;1460390;88;21419;-81
2022/02/13 08:14:54;;;;;;;37.78;20.00;;;;;;;-0.06;72.99;101918.58;1465134;89;21530;-80
2022/02/13 08:17:22;;;;;;;38.35;20.08;;;;;;;0.11;72.61;101908.54;1470774;88;22468;-80
2022/02/13 08:19:49;;;;;;;34.63;19.30;;;;;;;0.29;72.44;101912.80;1444175;88;22549;-79
2022/02/13 08:22:16;;;;;;;33.50;20.52;;;;;;;0.38;71.16;101911.25;1433133;88;21440;-79
2022/02/13 08:24:43;;;;;;;35.10;20.23;;;;;;;0.55;71.46;101913.35;1423649;90;21481;-79
2022/02/13 08:27:10;;;;;;;39.87;19.63;;;;;;;0.73;71.35;101914.07;1427614;88;21580;-80
2022/02/13 08:29:37;;;;;;;40.87;21.97;;;;;;;0.81;70.67;101918.59;1411366;89;22105;-80
2022/02/13 08:32:05;;;;;;;37.03;20.63;;;;;;;0.98;70.94;101908.05;1414241;89;21869;-79
2022/02/13 08:34:32;;;;;;;37.60;19.90;;;;;;;1.09;70.57;101900.31;1425203;88;22738;-79
2022/02/13 08:37:06;;;;;;;30.37;17.70;;;;;;;1.29;70.68;101902.22;1415022;89;21570;-79
2022/02/13 08:39:33;;;;;;;35.03;20.10;;;;;;;1.40;69.38;101895.80;1416478;90;22415;-79
2022/02/13 08:42:03;;;;;;;40.50;20.80;;;;;;;1.59;69.98;101894.27;1431966;88;21666;-79
2022/02/13 08:44:33;;;;;;;41.93;21.97;;;;;;;1.80;69.71;101902.62;1441604;88;21681;-79
2022/02/13 08:47:01;;;;;;;35.73;21.23;;;;;;;1.97;69.14;101894.64;1444388;87;22318;-78
2022/02/13 08:49:28;;;;;;;37.27;21.40;;;;;;;2.05;68.70;101887.37;1448256;87;22306;-79
2022/02/13 08:51:55;;;;;;;33.50;17.97;;;;;;;2.20;68.23;101892.02;1431793;89;21740;-80
2022/02/13 08:54:22;;;;;;;31.93;17.93;;;;;;;2.32;67.17;101897.22;1432835;89;22613;-79
2022/02/13 08:56:50;;;;;;;34.80;19.40;;;;;;;2.41;65.58;101896.02;1459712;89;21655;-79
2022/02/13 08:59:17;;;;;;;31.77;19.10;;;;;;;2.51;66.91;101892.15;1447912;88;21546;-80
2022/02/13 09:01:44;;;;;;;29.57;17.83;;;;;;;2.65;67.23;101890.30;1436234;89;21606;-79
2022/02/13 09:04:11;;;;;;;32.77;17.07;;;;;;;2.84;67.09;101885.17;1448320;89;21899;-79
2022/02/13 09:06:39;;;;;;;25.97;14.67;;;;;;;3.07;66.75;101889.45;1416100;92;21772;-79
2022/02/13 09:09:06;;;;;;;24.87;16.00;;;;;;;3.27;66.30;101888.63;1425772;91;21761;-79
2022/02/13 09:11:33;;;;;;;24.90;14.77;;;;;;;3.39;65.51;101890.72;1430686;91;22663;-79
2022/02/13 09:14:03;;;;;;;26.53;15.67;;;;;;;3.51;65.07;101883.66;1409211;92;21730;-78
2022/02/13 09:16:32;;;;;;;32.67;17.33;;;;;;;3.62;64.67;101887.10;1416383;92;21819;-79
2022/02/13 09:18:59;;;;;;;27.57;17.77;;;;;;;3.75;63.01;101893.98;1419107;91;21711;-79
2022/02/13 09:21:26;;;;;;;23.87;14.00;;;;;;;3.87;63.80;101888.19;1437502;89;23904;-79
2022/02/13 09:23:55;;;;;;;27.87;15.37;;;;;;;3.87;63.80;101888.19;1458043;89;22119;-79
2022/02/13 09:26:22;;;;;;;27.73;16.57;;;;;;;4.27;63.28;101891.14;1432623;89;21827;-79
2022/02/13 09:28:49;;;;;;;29.40;16.07;;;;;;;4.27;63.28;101891.14;1434285;90;22416;-79
2022/02/13 09:31:16;;;;;;;21.53;13.70;;;;;;;4.47;62.78;101818.11;1411781;91;22202;-78
2022/02/13 09:33:44;;;;;;;22.23;13.37;;;;;;;5.47;60.43;101883.98;1426801;91;21449;-79
2022/02/13 09:36:14;;;;;;;20.17;14.10;;;;;;;5.47;60.43;101883.98;1447236;89;21595;-79
2022/02/13 09:38:41;;;;;;;19.87;12.80;;;;;;;6.16;58.09;101883.43;1462305;88;21338;-79
2022/02/13 09:41:08;;;;;;;23.63;13.67;;;;;;;6.76;57.53;101880.95;1434386;89;22568;-80
2022/02/13 09:43:35;;;;;;;27.33;15.80;;;;;;;7.51;55.49;101870.44;1450949;89;22497;-79
2022/02/13 09:46:04;;;;;;;34.30;19.10;;;;;;;7.84;50.13;101870.18;1443508;90;21686;-79
2022/02/13 09:48:33;;;;;;;23.20;14.93;;;;;;;8.67;53.36;101878.16;1430958;88;22491;-79
2022/02/13 09:51:02;;;;;;;19.80;12.90;;;;;;;8.82;52.06;101871.87;1429723;90;21577;-80
2022/02/13 09:53:34;;;;;;;23.10;14.90;;;;;;;8.85;51.97;101872.98;1437887;90;21596;-80
2022/02/13 09:55:58;;;;;;;23.97;13.07;;;;;;;9.58;51.03;101868.51;1444401;89;21412;-80
2022/02/13 09:58:25;;;;;;;18.10;13.37;;;;;;;10.27;50.47;101866.32;1438106;90;22297;-79
2022/02/13 10:01:02;;;;;;;19.20;12.07;;;;;;;10.79;48.72;101860.34;1414932;91;21449;-80
2022/02/13 10:03:39;;;;;;;19.47;13.13;;;;;;;11.26;46.81;101854.58;1429406;89;22439;-80
2022/02/13 10:06:19;;;;;;;18.00;12.90;;;;;;;11.48;46.58;101849.31;1465345;89;21544;-79
2022/02/13 10:08:50;;;;;;;16.97;12.30;;;;;;;11.42;46.02;101846.27;1460516;89;21545;-79
2022/02/13 10:11:24;;;;;;;22.48;14.23;;;;;;;11.27;45.83;101840.34;1442471;89;22225;-79
2022/02/13 10:13:59;;;;;;;19.63;12.70;;;;;;;11.09;45.65;101842.60;1454397;89;21315;-79
2022/02/13 10:16:40;;;;;;;20.80;13.93;;;;;;;11.34;43.96;101832.80;1463364;89;21521;-79
2022/02/13 10:19:19;;;;;;;22.27;14.30;;;;;;;11.36;43.74;101830.36;1452056;89;21499;-81
2022/02/13 10:21:51;;;;;;;23.23;14.40;;;;;;;11.79;44.74;101824.84;1444792;89;21620;-79
2022/02/13 10:24:28;;;;;;;19.10;13.47;;;;;;;12.42;44.60;101821.98;1442282;89;21463;-79
2022/02/13 10:27:17;;;;;;;19.00;12.80;;;;;;;12.60;40.51;101809.86;1447961;87;21419;-79
2022/02/13 10:29:49;;;;;;;15.93;10.90;;;;;;;12.89;42.35;101807.92;1464208;87;22291;-78
2022/02/13 10:32:26;;;;;;;14.43;10.57;;;;;;;13.23;41.30;101798.39;1444362;89;21670;-80
2022/02/13 10:35:07;;;;;;;15.43;10.97;;;;;;;13.49;40.33;101792.17;1480446;88;21337;-80
2022/02/13 10:37:58;;;;;;;12.83;10.00;;;;;;;13.60;37.65;101787.26;1435474;90;21538;-79
2022/02/13 10:40:28;;;;;;;12.33;9.63;;;;;;;13.38;37.69;101787.81;1436879;90;21442;-78
2022/02/13 10:43:10;;;;;;;14.68;11.15;;;;;;;13.42;38.67;101789.22;1437924;90;21331;-76
2022/02/13 10:45:40;;;;;;;15.83;10.70;;;;;;;13.23;37.96;101784.60;1462902;89;21404;-79
2022/02/13 10:48:11;;;;;;;13.22;8.35;;;;;;;13.03;39.33;101781.48;1440574;89;21508;-79
2022/02/13 10:50:44;;;;;;;12.70;8.33;;;;;;;12.58;37.47;101780.41;1461800;89;21368;-79
2022/02/13 10:53:11;;;;;;;16.63;9.53;;;;;;;11.99;37.83;101783.00;1463684;88;21521;-79
2022/02/13 10:55:40;;;;;;;13.13;8.87;;;;;;;11.67;38.53;101777.59;1416323;89;21559;-80
2022/02/13 10:58:16;;;;;;;10.97;8.23;;;;;;;11.39;38.67;101778.91;1469452;87;21359;-81
2022/02/13 11:00:44;;;;;;;12.43;8.57;;;;;;;11.00;38.91;101763.83;1451089;87;22356;-80
2022/02/13 11:03:16;;;;;;;13.70;9.40;;;;;;;10.95;39.93;101764.17;1438951;90;21434;-80
2022/02/13 11:05:44;;;;;;;10.73;7.63;;;;;;;10.96;39.20;101757.94;1439471;89;21551;-80
2022/02/13 11:08:17;;;;;;;10.30;6.90;;;;;;;11.21;39.68;101756.86;1476145;89;21462;-80
2022/02/13 11:10:54;;;;;;;;;;;;;;;11.38;39.04;101756.03;1472240;89;21381;-80
2022/02/13 11:13:29;;;;;;;12.30;7.30;;;;;;;11.51;37.05;101745.67;1475618;89;20883;-81
2022/02/13 11:15:56;;;;;;;10.40;6.50;;;;;;;11.69;38.04;101737.22;1468069;89;22423;-81